createdAt,value
2018-05-03T00:00:23.195Z,101264.75
2018-05-03T00:02:51.263Z,101265.05
2018-05-03T00:05:19.369Z,101265.17
2018-05-03T00:07:48.149Z,101262.42
2018-05-03T00:10:16.242Z,101275.27
2018-05-03T00:12:45.324Z,101275.06
2018-05-03T00:15:13.409Z,101273.14
2018-05-03T00:17:41.544Z,101274.98
2018-05-03T00:20:09.593Z,101278.43
2018-05-03T00:22:37.720Z,101277.66
2018-05-03T00:25:06.480Z,101278.86
2018-05-03T00:27:34.558Z,101280.70
2018-05-03T00:30:02.694Z,101277.68
2018-05-03T00:32:31.273Z,101276.87
2018-05-03T00:34:59.411Z,101277.87
2018-05-03T00:37:27.833Z,101286.12
2018-05-03T00:39:55.901Z,101295.63
2018-05-03T00:42:23.983Z,101297.03
2018-05-03T00:44:52.094Z,101297.33
2018-05-03T00:47:20.221Z,101294.42
2018-05-03T00:49:49.227Z,101300.15
2018-05-03T00:52:18.353Z,101300.86
2018-05-03T00:54:48.380Z,101306.39
2018-05-03T00:57:16.459Z,101313.37
2018-05-03T00:59:44.655Z,101322.73
2018-05-03T01:11:57.775Z,101327.23
2018-05-03T01:14:26.772Z,101334.11
2018-05-03T01:16:54.853Z,101335.40
2018-05-03T01:19:28.016Z,101335.99
2018-05-03T01:21:56.408Z,101342.31
2018-05-03T01:24:24.475Z,101336.64
2018-05-03T01:26:52.627Z,101340.81
2018-05-03T01:29:20.701Z,101340.05
2018-05-03T01:31:48.783Z,101345.35
2018-05-03T01:34:16.899Z,101346.67
2018-05-03T01:36:44.975Z,101349.19
2018-05-03T01:39:13.864Z,101353.95
2018-05-03T01:41:41.967Z,101357.98
2018-05-03T01:44:10.875Z,101359.86
2018-05-03T01:46:38.963Z,101365.11
2018-05-03T01:49:07.436Z,101367.59
2018-05-03T01:51:36.289Z,101372.81
2018-05-03T01:54:04.369Z,101372.00
2018-05-03T01:56:32.808Z,101381.53
2018-05-03T01:59:00.883Z,101384.59
2018-05-03T02:01:29.696Z,101384.59
2018-05-03T02:03:57.776Z,101386.77
2018-05-03T02:06:26.237Z,101389.58
2018-05-03T02:08:54.305Z,101396.00
2018-05-03T02:11:22.390Z,101398.69
2018-05-03T02:13:50.614Z,101391.25
2018-05-03T02:16:19.065Z,101392.84
2018-05-03T02:18:47.145Z,101401.30
2018-05-03T02:21:15.246Z,101403.29
2018-05-03T02:23:43.335Z,101406.53
2018-05-03T02:26:16.362Z,101411.95
2018-05-03T02:28:44.567Z,101412.70
2018-05-03T02:31:12.666Z,101412.75
2018-05-03T02:33:40.748Z,101417.98
2018-05-03T02:36:08.858Z,101419.30
2018-05-03T02:38:36.938Z,101414.53
2018-05-03T02:41:05.023Z,101419.42
2018-05-03T02:43:33.130Z,101429.73
2018-05-03T02:46:01.221Z,101437.00
2018-05-03T02:48:30.231Z,101433.51
2018-05-03T02:50:59.456Z,101437.48
2018-05-03T02:53:27.527Z,101442.80
2018-05-03T02:55:55.902Z,101445.66
2018-05-03T02:58:35.809Z,101444.55
2018-05-03T03:01:21.547Z,101454.37
2018-05-03T03:04:07.274Z,101456.16
2018-05-03T03:06:52.973Z,101457.17
2018-05-03T03:09:40.716Z,101454.39
2018-05-03T03:12:41.139Z,101458.78
2018-05-03T03:15:26.883Z,101463.47
2018-05-03T03:18:11.967Z,101461.09
2018-05-03T03:20:58.405Z,101468.72
2018-05-03T03:23:49.014Z,101464.20
2018-05-03T03:30:13.428Z,101474.77
2018-05-03T03:32:53.297Z,101477.09
2018-05-03T03:38:35.907Z,101488.68
2018-05-03T03:41:16.362Z,101496.24
2018-05-03T03:43:56.863Z,101496.80
2018-05-03T03:46:24.954Z,101495.43
2018-05-03T03:48:53.067Z,101492.89
2018-05-03T03:51:21.263Z,101502.46
2018-05-03T03:53:49.334Z,101497.95
2018-05-03T03:56:17.439Z,101504.23
2018-05-03T03:58:45.570Z,101503.67
2018-05-03T04:01:13.660Z,101497.52
2018-05-03T04:03:41.762Z,101505.51
2018-05-03T04:06:09.929Z,101515.56
2018-05-03T04:08:37.938Z,101521.98
2018-05-03T04:11:06.064Z,101520.95
2018-05-03T04:13:34.154Z,101528.78
2018-05-03T04:16:02.236Z,101534.56
2018-05-03T04:18:42.110Z,101537.07
2018-05-03T04:21:21.899Z,101544.09
2018-05-03T04:24:11.441Z,101541.44
2018-05-03T04:26:39.522Z,101543.52
2018-05-03T04:29:07.594Z,101545.34
2018-05-03T04:31:35.701Z,101546.63
2018-05-03T04:34:03.921Z,101560.16
2018-05-03T04:36:32.002Z,101560.89
2018-05-03T04:39:00.163Z,101560.73
2018-05-03T04:41:28.243Z,101561.80
2018-05-03T04:43:56.317Z,101561.88
2018-05-03T04:46:24.456Z,101567.16
2018-05-03T04:48:52.527Z,101581.38
2018-05-03T04:51:21.289Z,101582.06
2018-05-03T04:53:49.367Z,101593.12
2018-05-03T04:56:17.454Z,101599.45
2018-05-03T04:58:45.821Z,101597.20
2018-05-03T05:01:13.911Z,101601.94
2018-05-03T05:03:41.998Z,101608.92
2018-05-03T05:06:15.591Z,101614.38
2018-05-03T05:08:43.679Z,101621.47
2018-05-03T05:11:11.771Z,101622.88
2018-05-03T05:13:40.516Z,101630.27
2018-05-03T05:16:08.611Z,101627.83
2018-05-03T05:18:36.693Z,101636.26
2018-05-03T05:21:05.099Z,101637.24
2018-05-03T05:23:33.189Z,101639.11
2018-05-03T05:26:01.271Z,101646.00
2018-05-03T05:28:29.362Z,101647.23
2018-05-03T05:30:57.439Z,101660.44
2018-05-03T05:33:25.531Z,101655.86
2018-05-03T05:35:53.629Z,101665.62
2018-05-03T05:38:21.703Z,101662.91
2018-05-03T05:40:49.788Z,101665.14
2018-05-03T05:43:17.887Z,101667.56
2018-05-03T05:45:52.514Z,101669.73
2018-05-03T05:48:26.352Z,101673.11
2018-05-03T05:50:54.493Z,101681.04
2018-05-03T05:53:23.527Z,101683.33
2018-05-03T05:55:51.742Z,101688.09
2018-05-03T05:58:20.619Z,101688.69
2018-05-03T06:00:49.093Z,101693.99
2018-05-03T06:03:17.167Z,101686.14
2018-05-03T06:05:45.294Z,101686.95
2018-05-03T06:21:13.405Z,101704.67
2018-05-03T06:23:41.537Z,101709.25
2018-05-03T06:26:09.631Z,101706.98
2018-05-03T06:28:37.759Z,101707.91
2018-05-03T06:31:05.912Z,101704.05
2018-05-03T06:33:33.995Z,101707.84
2018-05-03T06:36:02.405Z,101719.55
2018-05-03T06:38:31.316Z,101721.05
2018-05-03T06:40:59.567Z,101722.33
2018-05-03T06:43:27.761Z,101722.30
2018-05-03T06:45:55.821Z,101724.41
2018-05-03T06:48:25.307Z,101725.17
2018-05-03T06:50:53.479Z,101726.41
2018-05-03T06:53:22.372Z,101728.34
2018-05-03T06:55:50.455Z,101733.75
2018-05-03T06:58:24.691Z,101732.63
2018-05-03T07:00:52.892Z,101742.66
2018-05-03T07:03:21.615Z,101740.59
2018-05-03T07:05:49.723Z,101736.16
2018-05-03T07:08:17.803Z,101743.85
2018-05-03T07:10:45.945Z,101747.83
2018-05-03T07:13:14.004Z,101750.67
2018-05-03T07:15:43.124Z,101746.28
2018-05-03T07:18:11.212Z,101748.53
2018-05-03T07:20:39.315Z,101760.96
2018-05-03T07:23:07.636Z,101753.61
2018-05-03T07:25:35.718Z,101759.97
2018-05-03T07:28:03.828Z,101763.84
2018-05-03T07:30:31.936Z,101763.59
2018-05-03T07:33:00.024Z,101767.24
2018-05-03T07:45:13.134Z,101769.76
2018-05-03T07:47:41.213Z,101770.38
2018-05-03T07:50:09.320Z,101763.98
2018-05-03T07:52:38.335Z,101772.91
2018-05-03T07:55:06.403Z,101774.34
2018-05-03T07:57:35.362Z,101775.50
2018-05-03T08:00:03.781Z,101781.56
2018-05-03T08:02:31.844Z,101775.22
2018-05-03T08:04:59.952Z,101780.62
2018-05-03T08:07:28.090Z,101780.30
2018-05-03T08:09:56.215Z,101778.80
2018-05-03T08:12:24.355Z,101784.10
2018-05-03T08:14:52.494Z,101785.47
2018-05-03T08:17:20.626Z,101781.43
2018-05-03T08:19:49.880Z,101786.18
2018-05-03T08:22:17.997Z,101780.41
2018-05-03T08:24:46.084Z,101779.98
2018-05-03T08:27:14.192Z,101797.39
2018-05-03T08:29:42.284Z,101794.62
2018-05-03T08:32:10.384Z,101797.34
2018-05-03T08:34:38.507Z,101796.31
2018-05-03T08:37:12.042Z,101797.27
2018-05-03T08:39:40.155Z,101806.73
2018-05-03T08:42:08.302Z,101807.83
2018-05-03T08:44:36.385Z,101817.00
2018-05-03T08:47:04.569Z,101815.34
2018-05-03T08:49:33.322Z,101808.84
2018-05-03T08:52:01.404Z,101815.80
2018-05-03T08:54:29.508Z,101818.14
2018-05-03T08:56:59.004Z,101818.50
2018-05-03T08:59:28.085Z,101818.84
2018-05-03T09:01:56.353Z,101822.30
2018-05-03T09:04:24.263Z,101833.76
2018-05-03T09:06:52.348Z,101833.74
2018-05-03T09:09:20.533Z,101839.33
2018-05-03T09:11:49.338Z,101829.66
2018-05-03T09:14:17.686Z,101830.27
2018-05-03T09:16:45.771Z,101837.45
2018-05-03T09:28:59.880Z,101843.28
2018-05-03T09:31:28.006Z,101850.09
2018-05-03T09:33:56.125Z,101841.45
2018-05-03T09:36:24.227Z,101850.16
2018-05-03T09:38:52.326Z,101843.94
2018-05-03T09:41:20.397Z,101856.95
2018-05-03T09:43:48.722Z,101860.55
2018-05-03T09:46:22.339Z,101854.65
2018-05-03T09:48:51.379Z,101860.97
2018-05-03T09:51:20.244Z,101859.28
2018-05-03T09:53:48.850Z,101862.96
2018-05-03T09:56:16.943Z,101870.92
2018-05-03T09:58:45.052Z,101871.41
2018-05-03T10:01:13.155Z,101873.75
2018-05-03T10:03:41.242Z,101873.05
2018-05-03T10:06:09.352Z,101870.55
2018-05-03T10:08:37.532Z,101868.23
2018-05-03T10:11:05.941Z,101875.55
2018-05-03T10:23:19.035Z,101892.62
2018-05-03T10:25:47.128Z,101902.14
2018-05-03T10:28:15.205Z,101897.89
2018-05-03T10:30:48.283Z,101896.64
2018-05-03T10:33:16.426Z,101909.02
2018-05-03T10:35:44.514Z,101898.75
2018-05-03T10:38:12.616Z,101902.83
2018-05-03T10:40:40.714Z,101908.43
2018-05-03T10:45:56.230Z,101901.81
2018-05-03T10:48:24.334Z,101911.19
2018-05-03T10:50:52.424Z,101906.56
2018-05-03T10:53:20.502Z,101911.54
2018-05-03T10:55:48.622Z,101913.09
2018-05-03T10:58:16.723Z,101911.48
2018-05-03T11:00:44.815Z,101915.55
2018-05-03T11:03:12.955Z,101917.91
2018-05-03T11:05:42.202Z,101917.41
2018-05-03T11:08:10.286Z,101930.86
2018-05-03T11:20:23.371Z,101930.25
2018-05-03T11:22:51.454Z,101935.72
2018-05-03T11:25:19.627Z,101932.36
2018-05-03T11:27:47.747Z,101935.06
2018-05-03T11:30:15.863Z,101936.00
2018-05-03T11:32:44.745Z,101944.56
2018-05-03T11:35:12.832Z,101940.72
2018-05-03T11:37:41.929Z,101943.84
2018-05-03T11:40:10.035Z,101937.25
2018-05-03T11:42:38.329Z,101945.94
2018-05-03T11:45:06.473Z,101941.73
2018-05-03T11:47:34.821Z,101941.27
2018-05-03T11:50:02.987Z,101941.36
2018-05-03T11:52:31.076Z,101950.92
2018-05-03T11:54:59.201Z,101952.02
2018-05-03T11:57:27.319Z,101934.14
2018-05-03T11:59:55.412Z,101936.45
2018-05-03T12:02:24.116Z,101940.00
2018-05-03T12:04:52.976Z,101944.71
2018-05-03T12:07:21.059Z,101947.34
2018-05-03T12:09:49.146Z,101941.94
2018-05-03T12:12:18.086Z,101958.46
2018-05-03T12:14:47.976Z,101958.86
2018-05-03T12:17:16.113Z,101959.78
2018-05-03T12:19:44.199Z,101951.80
2018-05-03T12:22:12.301Z,101951.69
2018-05-03T12:24:40.423Z,101946.62
2018-05-03T12:27:08.521Z,101958.55
2018-05-03T12:29:36.609Z,101948.10
2018-05-03T12:32:04.699Z,101948.69
2018-05-03T12:34:32.776Z,101955.77
2018-05-03T12:37:00.855Z,101957.33
2018-05-03T12:39:29.007Z,101950.30
2018-05-03T12:41:57.080Z,101956.73
2018-05-03T12:44:25.548Z,101954.73
2018-05-03T12:46:53.629Z,101958.24
2018-05-03T12:49:22.507Z,101959.63
2018-05-03T12:51:50.622Z,101959.12
2018-05-03T12:54:19.487Z,101954.23
2018-05-03T12:56:47.669Z,101963.08
2018-05-03T12:59:15.773Z,101960.85
2018-05-03T13:01:45.551Z,101955.48
2018-05-03T13:04:13.688Z,101961.31
2018-05-03T13:06:41.825Z,101960.73
2018-05-03T13:09:10.815Z,101962.11
2018-05-03T13:11:38.988Z,101972.08
2018-05-03T13:14:07.744Z,101962.50
2018-05-03T13:16:35.811Z,101965.94
2018-05-03T13:19:03.916Z,101959.94
2018-05-03T13:21:32.876Z,101970.16
2018-05-03T13:24:01.232Z,101972.73
2018-05-03T13:26:29.325Z,101970.47
2018-05-03T13:28:57.455Z,101966.44
2018-05-03T13:31:25.527Z,101972.08
2018-05-03T13:33:53.617Z,101968.02
2018-05-03T13:36:21.738Z,101971.74
2018-05-03T13:38:49.935Z,101964.61
2018-05-03T13:41:18.376Z,101965.16
2018-05-03T13:43:46.423Z,101974.78
2018-05-03T13:46:14.517Z,101968.05
2018-05-03T13:48:42.980Z,101977.16
2018-05-03T13:51:11.061Z,101974.97
2018-05-03T13:53:39.154Z,101975.63
2018-05-03T13:56:07.288Z,101976.37
2018-05-03T13:58:35.431Z,101975.84
2018-05-03T14:01:03.512Z,101980.51
2018-05-03T14:03:31.720Z,101982.50
2018-05-03T14:05:59.798Z,101975.70
2018-05-03T14:08:27.890Z,101976.46
2018-05-03T14:10:56.012Z,101981.28
2018-05-03T14:13:24.096Z,101968.89
2018-05-03T14:15:52.318Z,101979.28
2018-05-03T14:18:26.050Z,101977.11
2018-05-03T14:20:54.578Z,101970.88
2018-05-03T14:23:22.638Z,101969.27
2018-05-03T14:25:51.119Z,101963.31
2018-05-03T14:28:19.218Z,101969.65
2018-05-03T14:30:47.359Z,101970.86
2018-05-03T14:33:15.816Z,101969.30
2018-05-03T14:35:43.902Z,101965.11
2018-05-03T14:38:12.026Z,101971.32
2018-05-03T14:40:40.178Z,101971.16
2018-05-03T14:43:09.247Z,101966.55
2018-05-03T14:45:38.118Z,101971.49
2018-05-03T14:48:06.570Z,101978.44
2018-05-03T14:50:34.772Z,101977.95
2018-05-03T14:53:02.789Z,101969.80
2018-05-03T14:55:31.670Z,101976.06
2018-05-03T14:58:00.630Z,101976.59
2018-05-03T15:00:28.817Z,101979.55
2018-05-03T15:02:57.390Z,101981.88
2018-05-03T15:05:25.600Z,101974.83
2018-05-03T15:07:53.776Z,101981.23
2018-05-03T15:10:21.867Z,101972.18
2018-05-03T15:12:50.092Z,101968.02
2018-05-03T15:15:18.261Z,101975.63
2018-05-03T15:17:46.374Z,101984.24
2018-05-03T15:20:14.457Z,101976.84
2018-05-03T15:22:43.831Z,101977.17
2018-05-03T15:25:11.936Z,101973.63
2018-05-03T15:27:40.034Z,101971.07
2018-05-03T15:30:10.108Z,101968.22
2018-05-03T15:32:38.272Z,101979.75
2018-05-03T15:35:06.394Z,101980.13
2018-05-03T15:37:34.485Z,101975.83
2018-05-03T15:40:03.254Z,101984.71
2018-05-03T15:42:31.354Z,101974.14
2018-05-03T15:44:59.446Z,101972.73
2018-05-03T15:47:28.371Z,101975.47
2018-05-03T15:49:56.532Z,101979.32
2018-05-03T15:52:24.575Z,101983.67
2018-05-03T15:54:58.268Z,101981.17
2018-05-03T15:57:26.359Z,101982.94
2018-05-03T15:59:54.436Z,101986.00
2018-05-03T16:12:07.543Z,101992.98
2018-05-03T16:14:36.047Z,101994.02
2018-05-03T16:17:04.186Z,101990.49
2018-05-03T16:19:32.915Z,101999.70
2018-05-03T16:22:01.471Z,101990.33
2018-05-03T16:24:29.568Z,101997.00
2018-05-03T16:26:58.428Z,102003.20
2018-05-03T16:42:26.568Z,102008.69
2018-05-03T16:44:54.680Z,102003.29
2018-05-03T16:47:27.796Z,102007.87
2018-05-03T16:49:55.934Z,101997.88
2018-05-03T16:52:24.090Z,102010.23
2018-05-03T16:54:53.133Z,102005.44
2018-05-03T16:57:21.544Z,102008.49
2018-05-03T16:59:49.714Z,102002.32
2018-05-03T17:02:18.016Z,102015.19
2018-05-03T17:04:47.089Z,102013.05
2018-05-03T17:07:16.177Z,102023.11
2018-05-03T17:09:44.247Z,102020.89
2018-05-03T17:12:12.347Z,102029.77
2018-05-03T17:14:41.438Z,102029.13
2018-05-03T17:17:09.594Z,102037.14
2018-05-03T17:19:37.779Z,102051.48
2018-05-03T17:22:06.220Z,102049.48
2018-05-03T17:24:34.660Z,102049.45
2018-05-03T17:27:02.760Z,102053.89
2018-05-03T17:29:30.869Z,102054.84
2018-05-03T17:32:00.027Z,102055.84
2018-05-03T17:47:29.160Z,102082.14
2018-05-03T17:49:57.916Z,102071.36
2018-05-03T17:52:26.125Z,102085.27
2018-05-03T17:54:54.234Z,102089.42
2018-05-03T17:57:24.338Z,102090.91
2018-05-03T17:59:52.463Z,102108.73
2018-05-03T18:02:20.565Z,102106.98
2018-05-03T18:04:48.724Z,102110.70
2018-05-03T18:07:17.716Z,102115.09
2018-05-03T18:09:45.891Z,102117.17
2018-05-03T18:12:13.983Z,102114.10
2018-05-03T18:14:42.747Z,102110.32
2018-05-03T18:17:10.867Z,102122.31
2018-05-03T18:19:44.453Z,102117.58
2018-05-03T18:22:12.580Z,102121.85
2018-05-03T18:24:40.717Z,102125.39
2018-05-03T18:27:08.880Z,102131.64
2018-05-03T18:29:36.995Z,102140.76
2018-05-03T18:32:06.029Z,102146.33
2018-05-03T18:34:34.130Z,102140.73
2018-05-03T18:37:02.228Z,102143.55
2018-05-03T18:39:30.364Z,102140.86
2018-05-03T18:41:58.464Z,102147.06
2018-05-03T18:44:27.840Z,102153.02
2018-05-03T18:46:56.049Z,102161.09
2018-05-03T18:49:24.240Z,102159.63
2018-05-03T18:51:52.349Z,102164.25
2018-05-03T18:54:20.436Z,102173.98
2018-05-03T18:56:48.531Z,102176.03
2018-05-03T18:59:16.641Z,102169.03
2018-05-03T19:01:45.744Z,102183.04
2018-05-03T19:04:14.343Z,102181.19
2018-05-03T19:06:43.148Z,102186.04
2018-05-03T19:09:11.221Z,102191.89
2018-05-03T19:11:39.404Z,102195.69
2018-05-03T19:14:07.467Z,102193.86
2018-05-03T19:16:35.640Z,102196.31
2018-05-03T19:19:04.347Z,102200.48
2018-05-03T19:21:32.487Z,102201.73
2018-05-03T19:24:01.591Z,102208.94
2018-05-03T19:26:30.119Z,102205.48
2018-05-03T19:28:58.549Z,102202.12
2018-05-03T19:31:26.681Z,102206.05
2018-05-03T19:33:54.776Z,102193.90
2018-05-03T19:36:22.894Z,102194.48
2018-05-03T19:38:51.047Z,102194.44
2018-05-03T19:41:19.165Z,102201.53
2018-05-03T19:43:47.296Z,102197.89
2018-05-03T19:46:15.611Z,102206.87
2018-05-03T19:48:44.681Z,102206.16
2018-05-03T19:51:12.751Z,102206.47
2018-05-03T19:53:41.642Z,102216.84
2018-05-03T19:56:09.723Z,102215.84
2018-05-03T19:58:37.829Z,102214.58
2018-05-03T20:01:06.169Z,102215.38
2018-05-03T20:03:35.384Z,102218.57
2018-05-03T20:06:03.603Z,102219.63
2018-05-03T20:08:31.695Z,102220.02
2018-05-03T20:11:00.659Z,102226.09
2018-05-03T20:13:31.516Z,102226.81
2018-05-03T20:16:05.143Z,102225.06
2018-05-03T20:18:38.807Z,102223.17
2018-05-03T20:21:07.459Z,102216.98
2018-05-03T20:23:35.633Z,102220.75
2018-05-03T20:26:03.757Z,102221.62
2018-05-03T20:28:31.883Z,102223.80
2018-05-03T20:31:06.610Z,102224.98
2018-05-03T20:33:35.113Z,102224.47
2018-05-03T20:36:03.925Z,102232.12
2018-05-03T20:38:31.997Z,102238.22
2018-05-03T20:41:00.111Z,102230.97
2018-05-03T20:43:28.191Z,102230.63
2018-05-03T20:45:56.315Z,102228.28
2018-05-03T20:48:24.655Z,102236.87
2018-05-03T20:50:52.731Z,102237.29
2018-05-03T20:53:20.823Z,102237.08
2018-05-03T20:55:48.947Z,102236.55
2018-05-03T20:58:17.035Z,102239.98
2018-05-03T21:00:45.224Z,102235.81
2018-05-03T21:03:13.315Z,102237.02
2018-05-03T21:05:47.043Z,102243.44
2018-05-03T21:08:20.663Z,102242.11
2018-05-03T21:10:48.783Z,102232.14
2018-05-03T21:13:16.865Z,102226.78
2018-05-03T21:15:45.623Z,102221.84
2018-05-03T21:18:13.694Z,102225.22
2018-05-03T21:20:42.304Z,102210.72
2018-05-03T21:23:10.396Z,102216.98
2018-05-03T21:25:38.887Z,102225.34
2018-05-03T21:28:08.106Z,102219.34
2018-05-03T21:30:36.491Z,102221.36
2018-05-03T21:33:04.643Z,102218.20
2018-05-03T21:35:32.727Z,102221.10
2018-05-03T21:38:00.829Z,102224.36
2018-05-03T21:40:30.004Z,102227.91
2018-05-03T21:42:58.069Z,102239.47
2018-05-03T21:45:26.182Z,102229.69
2018-05-03T21:47:54.273Z,102223.58
2018-05-03T21:50:22.374Z,102224.83
2018-05-03T21:52:50.453Z,102225.69
2018-05-03T21:55:18.535Z,102227.85
2018-05-03T21:57:47.266Z,102226.68
2018-05-03T22:00:15.391Z,102222.45
2018-05-03T22:02:43.463Z,102223.80
2018-05-03T22:05:11.575Z,102216.52
2018-05-03T22:07:39.657Z,102218.23
2018-05-03T22:10:07.792Z,102223.02
2018-05-03T22:12:35.857Z,102226.95
2018-05-03T22:15:03.953Z,102216.25
2018-05-03T22:17:32.073Z,102221.27
2018-05-03T22:20:00.151Z,102224.48
2018-05-03T22:22:28.588Z,102223.91
2018-05-03T22:24:57.273Z,102227.69
2018-05-03T22:27:25.343Z,102229.11
2018-05-03T22:29:53.435Z,102226.30
2018-05-03T22:32:21.546Z,102227.00
2018-05-03T22:34:49.662Z,102236.73
2018-05-03T22:37:17.744Z,102234.32
2018-05-03T22:39:45.834Z,102243.23
2018-05-03T22:42:13.917Z,102237.20
2018-05-03T22:44:42.036Z,102233.45
2018-05-03T22:47:10.119Z,102223.66
2018-05-03T22:49:38.213Z,102224.70
2018-05-03T22:52:06.327Z,102219.27
2018-05-03T22:54:34.415Z,102221.98
2018-05-03T22:57:02.522Z,102232.92
2018-05-03T22:59:31.347Z,102229.90
2018-05-03T23:01:59.422Z,102234.36
2018-05-03T23:04:27.608Z,102229.33
2018-05-03T23:06:55.721Z,102232.23
2018-05-03T23:22:24.166Z,102241.08
2018-05-03T23:24:52.255Z,102236.21
2018-05-03T23:27:21.115Z,102232.53
2018-05-03T23:29:49.452Z,102232.63
2018-05-03T23:32:17.535Z,102233.62
2018-05-03T23:34:45.633Z,102232.02
2018-05-03T23:37:13.754Z,102236.91
2018-05-03T23:39:41.847Z,102242.98
2018-05-03T23:42:09.966Z,102230.92
2018-05-03T23:44:38.047Z,102230.09
2018-05-03T23:47:06.247Z,102233.76
2018-05-03T23:49:34.973Z,102235.78
2018-05-03T23:52:03.120Z,102238.09
2018-05-03T23:54:31.283Z,102237.72
2018-05-03T23:56:59.387Z,102239.16
2018-05-03T23:59:27.505Z,102241.97
